sensor_id;sensor_type;location;lat;lon;timestamp;P1;durP1;ratioP1;P2;durP2;ratioP2
3299;SDS011;1662;49.310;8.134;2023-07-28T00:01:29;2.63;;;2.53;;
3299;SDS011;1662;49.310;8.134;2023-07-28T00:03:55;2.10;;;2.00;;
3299;SDS011;1662;49.310;8.134;2023-07-28T00:06:22;2.30;;;2.20;;
3299;SDS011;1662;49.310;8.134;2023-07-28T00:08:48;2.30;;;2.20;;
3299;SDS011;1662;49.310;8.134;2023-07-28T00:11:14;2.47;;;2.37;;
3299;SDS011;1662;49.310;8.134;2023-07-28T00:13:41;2.83;;;2.73;;
3299;SDS011;1662;49.310;8.134;2023-07-28T00:16:08;2.40;;;2.30;;
3299;SDS011;1662;49.310;8.134;2023-07-28T00:18:34;2.60;;;2.50;;
3299;SDS011;1662;49.310;8.134;2023-07-28T00:21:00;2.47;;;2.27;;
3299;SDS011;1662;49.310;8.134;2023-07-28T00:23:27;2.60;;;2.50;;
3299;SDS011;1662;49.310;8.134;2023-07-28T00:25:53;2.63;;;2.53;;
3299;SDS011;1662;49.310;8.134;2023-07-28T00:28:18;2.93;;;2.73;;
3299;SDS011;1662;49.310;8.134;2023-07-28T00:30:44;4.27;;;2.87;;
3299;SDS011;1662;49.310;8.134;2023-07-28T00:33:14;3.00;;;2.90;;
3299;SDS011;1662;49.310;8.134;2023-07-28T00:35:40;3.07;;;2.97;;
3299;SDS011;1662;49.310;8.134;2023-07-28T00:38:06;3.33;;;3.17;;
3299;SDS011;1662;49.310;8.134;2023-07-28T00:40:31;2.80;;;2.60;;
3299;SDS011;1662;49.310;8.134;2023-07-28T00:42:57;2.23;;;2.03;;
3299;SDS011;1662;49.310;8.134;2023-07-28T00:45:22;2.50;;;2.30;;
3299;SDS011;1662;49.310;8.134;2023-07-28T00:47:48;2.50;;;2.40;;
3299;SDS011;1662;49.310;8.134;2023-07-28T00:50:14;3.20;;;2.87;;
3299;SDS011;1662;49.310;8.134;2023-07-28T00:52:39;3.47;;;3.27;;
3299;SDS011;1662;49.310;8.134;2023-07-28T00:55:06;2.90;;;2.80;;
3299;SDS011;1662;49.310;8.134;2023-07-28T00:57:32;3.20;;;3.10;;
3299;SDS011;1662;49.310;8.134;2023-07-28T01:00:04;2.90;;;2.80;;
3299;SDS011;1662;49.310;8.134;2023-07-28T01:02:30;3.10;;;2.90;;
3299;SDS011;1662;49.310;8.134;2023-07-28T01:04:56;3.00;;;2.83;;
3299;SDS011;1662;49.310;8.134;2023-07-28T01:10:17;2.90;;;2.80;;
3299;SDS011;1662;49.310;8.134;2023-07-28T01:12:47;2.70;;;2.60;;
3299;SDS011;1662;49.310;8.134;2023-07-28T01:15:13;2.37;;;2.27;;
3299;SDS011;1662;49.310;8.134;2023-07-28T01:17:40;2.90;;;2.80;;
3299;SDS011;1662;49.310;8.134;2023-07-28T01:20:06;2.70;;;2.60;;
3299;SDS011;1662;49.310;8.134;2023-07-28T01:27:45;2.73;;;2.63;;
3299;SDS011;1662;49.310;8.134;2023-07-28T01:30:11;2.40;;;2.30;;
3299;SDS011;1662;49.310;8.134;2023-07-28T01:32:36;2.50;;;2.40;;
3299;SDS011;1662;49.310;8.134;2023-07-28T01:35:02;2.80;;;2.60;;
3299;SDS011;1662;49.310;8.134;2023-07-28T01:37:29;2.20;;;2.10;;
3299;SDS011;1662;49.310;8.134;2023-07-28T01:39:55;2.13;;;2.03;;
3299;SDS011;1662;49.310;8.134;2023-07-28T01:42:22;2.30;;;2.20;;
3299;SDS011;1662;49.310;8.134;2023-07-28T01:44:48;2.73;;;2.63;;
3299;SDS011;1662;49.310;8.134;2023-07-28T01:47:14;4.53;;;2.40;;
3299;SDS011;1662;49.310;8.134;2023-07-28T01:49:39;2.73;;;2.43;;
3299;SDS011;1662;49.310;8.134;2023-07-28T01:52:05;2.70;;;2.50;;
3299;SDS011;1662;49.310;8.134;2023-07-28T01:54:31;2.23;;;2.13;;
3299;SDS011;1662;49.310;8.134;2023-07-28T01:56:56;2.37;;;2.27;;
3299;SDS011;1662;49.310;8.134;2023-07-28T01:59:22;3.33;;;2.97;;
3299;SDS011;1662;49.310;8.134;2023-07-28T02:01:47;2.73;;;2.63;;
3299;SDS011;1662;49.310;8.134;2023-07-28T02:04:16;2.07;;;2.00;;
3299;SDS011;1662;49.310;8.134;2023-07-28T02:06:41;2.10;;;2.00;;
3299;SDS011;1662;49.310;8.134;2023-07-28T02:09:07;2.10;;;2.00;;
3299;SDS011;1662;49.310;8.134;2023-07-28T02:11:33;1.70;;;1.70;;
3299;SDS011;1662;49.310;8.134;2023-07-28T02:13:58;2.40;;;2.30;;
3299;SDS011;1662;49.310;8.134;2023-07-28T02:16:24;2.43;;;2.33;;
3299;SDS011;1662;49.310;8.134;2023-07-28T02:18:52;1.90;;;1.80;;
3299;SDS011;1662;49.310;8.134;2023-07-28T02:21:21;1.80;;;1.70;;
3299;SDS011;1662;49.310;8.134;2023-07-28T02:23:47;2.10;;;2.00;;
3299;SDS011;1662;49.310;8.134;2023-07-28T02:26:13;2.00;;;1.90;;
3299;SDS011;1662;49.310;8.134;2023-07-28T02:28:39;2.60;;;2.50;;
3299;SDS011;1662;49.310;8.134;2023-07-28T02:31:04;1.80;;;1.70;;
3299;SDS011;1662;49.310;8.134;2023-07-28T02:33:30;1.77;;;1.70;;
3299;SDS011;1662;49.310;8.134;2023-07-28T02:35:58;2.10;;;2.00;;
3299;SDS011;1662;49.310;8.134;2023-07-28T02:38:24;1.80;;;1.70;;
3299;SDS011;1662;49.310;8.134;2023-07-28T02:40:49;1.40;;;1.40;;
3299;SDS011;1662;49.310;8.134;2023-07-28T02:43:15;1.93;;;1.83;;
3299;SDS011;1662;49.310;8.134;2023-07-28T02:45:41;1.90;;;1.87;;
3299;SDS011;1662;49.310;8.134;2023-07-28T02:48:07;1.83;;;1.73;;
3299;SDS011;1662;49.310;8.134;2023-07-28T02:50:33;2.07;;;1.97;;
3299;SDS011;1662;49.310;8.134;2023-07-28T02:52:58;1.57;;;1.57;;
3299;SDS011;1662;49.310;8.134;2023-07-28T02:55:24;1.60;;;1.60;;
3299;SDS011;1662;49.310;8.134;2023-07-28T02:57:49;1.70;;;1.60;;
3299;SDS011;1662;49.310;8.134;2023-07-28T03:00:15;2.40;;;1.70;;
3299;SDS011;1662;49.310;8.134;2023-07-28T03:02:41;2.23;;;1.70;;
3299;SDS011;1662;49.310;8.134;2023-07-28T03:05:06;1.23;;;1.23;;
3299;SDS011;1662;49.310;8.134;2023-07-28T03:07:32;1.60;;;1.50;;
3299;SDS011;1662;49.310;8.134;2023-07-28T03:09:58;1.43;;;1.43;;
3299;SDS011;1662;49.310;8.134;2023-07-28T03:12:23;1.40;;;1.40;;
3299;SDS011;1662;49.310;8.134;2023-07-28T03:14:49;1.40;;;1.30;;
3299;SDS011;1662;49.310;8.134;2023-07-28T03:17:14;1.50;;;1.40;;
3299;SDS011;1662;49.310;8.134;2023-07-28T03:19:40;1.20;;;1.20;;
3299;SDS011;1662;49.310;8.134;2023-07-28T03:22:06;1.47;;;1.47;;
3299;SDS011;1662;49.310;8.134;2023-07-28T03:24:31;1.30;;;1.20;;
3299;SDS011;1662;49.310;8.134;2023-07-28T03:26:57;1.43;;;1.33;;
3299;SDS011;1662;49.310;8.134;2023-07-28T03:29:22;1.43;;;1.43;;
3299;SDS011;1662;49.310;8.134;2023-07-28T03:31:48;1.57;;;1.33;;
3299;SDS011;1662;49.310;8.134;2023-07-28T03:34:13;1.23;;;1.23;;
3299;SDS011;1662;49.310;8.134;2023-07-28T03:36:39;1.30;;;1.30;;
3299;SDS011;1662;49.310;8.134;2023-07-28T03:39:05;1.23;;;1.23;;
3299;SDS011;1662;49.310;8.134;2023-07-28T03:41:30;1.27;;;1.27;;
3299;SDS011;1662;49.310;8.134;2023-07-28T03:43:56;1.50;;;1.50;;
3299;SDS011;1662;49.310;8.134;2023-07-28T03:46:21;1.70;;;1.60;;
3299;SDS011;1662;49.310;8.134;2023-07-28T03:48:47;1.50;;;1.40;;
3299;SDS011;1662;49.310;8.134;2023-07-28T03:51:13;1.60;;;1.60;;
3299;SDS011;1662;49.310;8.134;2023-07-28T03:53:38;1.83;;;1.73;;
3299;SDS011;1662;49.310;8.134;2023-07-28T03:56:04;1.80;;;1.70;;
3299;SDS011;1662;49.310;8.134;2023-07-28T03:58:30;1.93;;;1.83;;
3299;SDS011;1662;49.310;8.134;2023-07-28T04:00:56;1.90;;;1.80;;
3299;SDS011;1662;49.310;8.134;2023-07-28T04:03:21;1.50;;;1.40;;
3299;SDS011;1662;49.310;8.134;2023-07-28T04:05:47;1.20;;;1.20;;
3299;SDS011;1662;49.310;8.134;2023-07-28T04:08:15;1.43;;;1.10;;
3299;SDS011;1662;49.310;8.134;2023-07-28T04:10:41;1.60;;;1.60;;
3299;SDS011;1662;49.310;8.134;2023-07-28T04:13:08;0.90;;;0.90;;
3299;SDS011;1662;49.310;8.134;2023-07-28T04:15:33;1.17;;;1.17;;
3299;SDS011;1662;49.310;8.134;2023-07-28T04:18:01;1.20;;;1.10;;
3299;SDS011;1662;49.310;8.134;2023-07-28T04:20:27;1.10;;;1.10;;
3299;SDS011;1662;49.310;8.134;2023-07-28T04:22:53;1.23;;;1.23;;
3299;SDS011;1662;49.310;8.134;2023-07-28T04:25:20;1.23;;;1.23;;
3299;SDS011;1662;49.310;8.134;2023-07-28T04:27:46;1.20;;;1.20;;
3299;SDS011;1662;49.310;8.134;2023-07-28T04:30:12;1.60;;;1.50;;
3299;SDS011;1662;49.310;8.134;2023-07-28T04:32:37;1.93;;;1.57;;
3299;SDS011;1662;49.310;8.134;2023-07-28T04:35:03;1.00;;;1.00;;
3299;SDS011;1662;49.310;8.134;2023-07-28T04:37:30;1.27;;;1.27;;
3299;SDS011;1662;49.310;8.134;2023-07-28T04:39:55;1.73;;;1.40;;
3299;SDS011;1662;49.310;8.134;2023-07-28T04:42:21;1.20;;;1.20;;
3299;SDS011;1662;49.310;8.134;2023-07-28T04:44:47;1.60;;;1.60;;
3299;SDS011;1662;49.310;8.134;2023-07-28T04:47:12;1.60;;;1.50;;
3299;SDS011;1662;49.310;8.134;2023-07-28T04:49:38;1.30;;;1.30;;
3299;SDS011;1662;49.310;8.134;2023-07-28T04:52:03;1.50;;;1.40;;
3299;SDS011;1662;49.310;8.134;2023-07-28T04:54:29;1.70;;;1.60;;
3299;SDS011;1662;49.310;8.134;2023-07-28T04:56:55;1.67;;;1.57;;
3299;SDS011;1662;49.310;8.134;2023-07-28T04:59:20;1.20;;;1.20;;
3299;SDS011;1662;49.310;8.134;2023-07-28T05:01:46;1.43;;;1.40;;
3299;SDS011;1662;49.310;8.134;2023-07-28T05:04:11;1.60;;;1.50;;
3299;SDS011;1662;49.310;8.134;2023-07-28T05:06:37;1.70;;;1.60;;
3299;SDS011;1662;49.310;8.134;2023-07-28T05:09:03;2.00;;;1.90;;
3299;SDS011;1662;49.310;8.134;2023-07-28T05:11:28;1.63;;;1.63;;
3299;SDS011;1662;49.310;8.134;2023-07-28T05:13:54;1.40;;;1.40;;
3299;SDS011;1662;49.310;8.134;2023-07-28T05:16:19;1.77;;;1.67;;
3299;SDS011;1662;49.310;8.134;2023-07-28T05:18:45;4.40;;;1.90;;
3299;SDS011;1662;49.310;8.134;2023-07-28T05:21:11;1.33;;;1.33;;
3299;SDS011;1662;49.310;8.134;2023-07-28T05:23:39;1.67;;;1.67;;
3299;SDS011;1662;49.310;8.134;2023-07-28T05:26:04;1.30;;;1.30;;
3299;SDS011;1662;49.310;8.134;2023-07-28T05:28:33;2.10;;;2.00;;
3299;SDS011;1662;49.310;8.134;2023-07-28T05:31:05;1.63;;;1.53;;
3299;SDS011;1662;49.310;8.134;2023-07-28T05:33:31;1.50;;;1.40;;
3299;SDS011;1662;49.310;8.134;2023-07-28T05:36:01;1.30;;;1.20;;
3299;SDS011;1662;49.310;8.134;2023-07-28T05:38:29;1.90;;;1.80;;
3299;SDS011;1662;49.310;8.134;2023-07-28T05:40:56;1.37;;;1.37;;
3299;SDS011;1662;49.310;8.134;2023-07-28T05:43:28;1.80;;;1.70;;
3299;SDS011;1662;49.310;8.134;2023-07-28T05:45:56;1.63;;;1.60;;
3299;SDS011;1662;49.310;8.134;2023-07-28T05:48:22;1.30;;;1.30;;
3299;SDS011;1662;49.310;8.134;2023-07-28T05:50:48;1.73;;;1.63;;
3299;SDS011;1662;49.310;8.134;2023-07-28T05:53:16;1.63;;;1.53;;
3299;SDS011;1662;49.310;8.134;2023-07-28T05:55:41;1.43;;;1.43;;
3299;SDS011;1662;49.310;8.134;2023-07-28T05:58:07;1.37;;;1.37;;
3299;SDS011;1662;49.310;8.134;2023-07-28T06:00:32;1.30;;;1.30;;
3299;SDS011;1662;49.310;8.134;2023-07-28T06:02:58;1.30;;;1.30;;
3299;SDS011;1662;49.310;8.134;2023-07-28T06:05:26;1.30;;;1.30;;
3299;SDS011;1662;49.310;8.134;2023-07-28T06:07:54;1.40;;;1.40;;
3299;SDS011;1662;49.310;8.134;2023-07-28T06:10:20;1.50;;;1.50;;
3299;SDS011;1662;49.310;8.134;2023-07-28T06:12:46;1.37;;;1.30;;
3299;SDS011;1662;49.310;8.134;2023-07-28T06:15:11;1.10;;;1.10;;
3299;SDS011;1662;49.310;8.134;2023-07-28T06:17:37;1.80;;;1.80;;
3299;SDS011;1662;49.310;8.134;2023-07-28T06:20:02;1.80;;;1.70;;
3299;SDS011;1662;49.310;8.134;2023-07-28T06:22:28;1.17;;;1.17;;
3299;SDS011;1662;49.310;8.134;2023-07-28T06:24:57;1.60;;;1.60;;
3299;SDS011;1662;49.310;8.134;2023-07-28T06:27:25;1.30;;;1.20;;
3299;SDS011;1662;49.310;8.134;2023-07-28T06:29:50;1.43;;;1.43;;
3299;SDS011;1662;49.310;8.134;2023-07-28T06:32:16;1.57;;;1.57;;
3299;SDS011;1662;49.310;8.134;2023-07-28T06:34:41;1.60;;;1.60;;
3299;SDS011;1662;49.310;8.134;2023-07-28T06:37:07;1.37;;;1.30;;
3299;SDS011;1662;49.310;8.134;2023-07-28T06:39:35;1.20;;;1.20;;
3299;SDS011;1662;49.310;8.134;2023-07-28T06:42:00;1.63;;;1.53;;
3299;SDS011;1662;49.310;8.134;2023-07-28T06:44:26;1.30;;;1.30;;
3299;SDS011;1662;49.310;8.134;2023-07-28T06:46:52;1.97;;;1.87;;
3299;SDS011;1662;49.310;8.134;2023-07-28T06:49:17;1.77;;;1.67;;
3299;SDS011;1662;49.310;8.134;2023-07-28T06:51:43;1.63;;;1.57;;
3299;SDS011;1662;49.310;8.134;2023-07-28T06:54:08;1.43;;;1.33;;
3299;SDS011;1662;49.310;8.134;2023-07-28T06:56:37;1.63;;;1.50;;
3299;SDS011;1662;49.310;8.134;2023-07-28T06:59:03;1.60;;;1.47;;
3299;SDS011;1662;49.310;8.134;2023-07-28T07:01:29;2.00;;;1.90;;
3299;SDS011;1662;49.310;8.134;2023-07-28T07:03:54;1.37;;;1.30;;
3299;SDS011;1662;49.310;8.134;2023-07-28T07:06:20;1.67;;;1.67;;
3299;SDS011;1662;49.310;8.134;2023-07-28T07:08:46;1.37;;;1.27;;
3299;SDS011;1662;49.310;8.134;2023-07-28T07:11:12;1.60;;;1.50;;
3299;SDS011;1662;49.310;8.134;2023-07-28T07:13:37;1.33;;;1.33;;
3299;SDS011;1662;49.310;8.134;2023-07-28T07:16:03;1.90;;;1.80;;
3299;SDS011;1662;49.310;8.134;2023-07-28T07:18:28;1.30;;;1.30;;
3299;SDS011;1662;49.310;8.134;2023-07-28T07:20:54;1.20;;;1.20;;
3299;SDS011;1662;49.310;8.134;2023-07-28T07:23:20;1.20;;;1.20;;
3299;SDS011;1662;49.310;8.134;2023-07-28T07:25:48;1.50;;;1.50;;
3299;SDS011;1662;49.310;8.134;2023-07-28T07:28:14;1.40;;;1.40;;
3299;SDS011;1662;49.310;8.134;2023-07-28T07:30:40;1.37;;;1.37;;
3299;SDS011;1662;49.310;8.134;2023-07-28T07:33:08;1.80;;;1.70;;
3299;SDS011;1662;49.310;8.134;2023-07-28T07:35:35;1.30;;;1.30;;
3299;SDS011;1662;49.310;8.134;2023-07-28T07:38:02;1.73;;;1.63;;
3299;SDS011;1662;49.310;8.134;2023-07-28T07:40:34;1.40;;;1.40;;
3299;SDS011;1662;49.310;8.134;2023-07-28T07:43:00;1.33;;;1.33;;
3299;SDS011;1662;49.310;8.134;2023-07-28T07:45:28;1.70;;;1.60;;
3299;SDS011;1662;49.310;8.134;2023-07-28T07:47:54;1.50;;;1.50;;
3299;SDS011;1662;49.310;8.134;2023-07-28T07:50:20;1.20;;;1.20;;
3299;SDS011;1662;49.310;8.134;2023-07-28T07:52:46;1.60;;;1.50;;
3299;SDS011;1662;49.310;8.134;2023-07-28T07:55:12;2.57;;;1.40;;
3299;SDS011;1662;49.310;8.134;2023-07-28T07:57:38;1.60;;;1.60;;
3299;SDS011;1662;49.310;8.134;2023-07-28T08:00:07;1.40;;;1.33;;
3299;SDS011;1662;49.310;8.134;2023-07-28T08:02:34;1.30;;;1.30;;
3299;SDS011;1662;49.310;8.134;2023-07-28T08:05:00;1.40;;;1.40;;
3299;SDS011;1662;49.310;8.134;2023-07-28T08:07:26;1.20;;;1.20;;
3299;SDS011;1662;49.310;8.134;2023-07-28T08:09:51;2.07;;;1.50;;
3299;SDS011;1662;49.310;8.134;2023-07-28T08:12:17;1.30;;;1.30;;
3299;SDS011;1662;49.310;8.134;2023-07-28T08:14:43;1.63;;;1.60;;
3299;SDS011;1662;49.310;8.134;2023-07-28T08:17:09;1.27;;;1.27;;
3299;SDS011;1662;49.310;8.134;2023-07-28T08:19:35;1.23;;;1.23;;
3299;SDS011;1662;49.310;8.134;2023-07-28T08:22:01;1.50;;;1.50;;
3299;SDS011;1662;49.310;8.134;2023-07-28T08:24:28;1.60;;;1.60;;
3299;SDS011;1662;49.310;8.134;2023-07-28T08:26:54;1.40;;;1.40;;
3299;SDS011;1662;49.310;8.134;2023-07-28T08:29:20;1.40;;;1.40;;
3299;SDS011;1662;49.310;8.134;2023-07-28T08:31:45;1.70;;;1.70;;
3299;SDS011;1662;49.310;8.134;2023-07-28T08:34:12;2.40;;;1.60;;
3299;SDS011;1662;49.310;8.134;2023-07-28T08:36:37;1.70;;;1.60;;
3299;SDS011;1662;49.310;8.134;2023-07-28T08:39:03;1.87;;;1.77;;
3299;SDS011;1662;49.310;8.134;2023-07-28T08:41:29;2.47;;;2.37;;
3299;SDS011;1662;49.310;8.134;2023-07-28T08:43:55;2.37;;;2.27;;
3299;SDS011;1662;49.310;8.134;2023-07-28T08:46:21;2.13;;;2.03;;
3299;SDS011;1662;49.310;8.134;2023-07-28T08:48:46;1.83;;;1.73;;
3299;SDS011;1662;49.310;8.134;2023-07-28T08:51:13;2.13;;;2.03;;
3299;SDS011;1662;49.310;8.134;2023-07-28T08:53:39;2.00;;;1.90;;
3299;SDS011;1662;49.310;8.134;2023-07-28T08:56:05;2.43;;;2.23;;
3299;SDS011;1662;49.310;8.134;2023-07-28T08:58:31;2.10;;;2.00;;
3299;SDS011;1662;49.310;8.134;2023-07-28T09:00:56;2.13;;;2.03;;
3299;SDS011;1662;49.310;8.134;2023-07-28T09:03:26;2.40;;;2.30;;
3299;SDS011;1662;49.310;8.134;2023-07-28T09:05:54;1.90;;;1.90;;
3299;SDS011;1662;49.310;8.134;2023-07-28T09:08:25;1.80;;;1.80;;
3299;SDS011;1662;49.310;8.134;2023-07-28T09:10:52;2.20;;;2.10;;
3299;SDS011;1662;49.310;8.134;2023-07-28T09:13:19;1.70;;;1.70;;
3299;SDS011;1662;49.310;8.134;2023-07-28T09:15:46;1.83;;;1.73;;
3299;SDS011;1662;49.310;8.134;2023-07-28T09:18:15;1.87;;;1.80;;
3299;SDS011;1662;49.310;8.134;2023-07-28T09:20:42;2.50;;;2.40;;
3299;SDS011;1662;49.310;8.134;2023-07-28T09:23:09;2.80;;;2.60;;
3299;SDS011;1662;49.310;8.134;2023-07-28T09:25:38;2.70;;;2.60;;
3299;SDS011;1662;49.310;8.134;2023-07-28T09:28:05;2.10;;;2.00;;
3299;SDS011;1662;49.310;8.134;2023-07-28T09:30:47;2.50;;;2.40;;
3299;SDS011;1662;49.310;8.134;2023-07-28T09:33:20;3.30;;;3.20;;
3299;SDS011;1662;49.310;8.134;2023-07-28T09:35:55;2.97;;;2.87;;
3299;SDS011;1662;49.310;8.134;2023-07-28T09:38:21;3.00;;;2.90;;
3299;SDS011;1662;49.310;8.134;2023-07-28T09:40:48;3.47;;;3.27;;
3299;SDS011;1662;49.310;8.134;2023-07-28T09:43:14;2.90;;;2.80;;
3299;SDS011;1662;49.310;8.134;2023-07-28T09:45:39;3.27;;;3.10;;
3299;SDS011;1662;49.310;8.134;2023-07-28T09:48:07;2.80;;;2.70;;
3299;SDS011;1662;49.310;8.134;2023-07-28T09:50:36;3.57;;;3.37;;
3299;SDS011;1662;49.310;8.134;2023-07-28T09:53:03;2.90;;;2.80;;
3299;SDS011;1662;49.310;8.134;2023-07-28T09:55:29;3.63;;;3.33;;
3299;SDS011;1662;49.310;8.134;2023-07-28T09:57:55;3.00;;;2.90;;
3299;SDS011;1662;49.310;8.134;2023-07-28T10:00:24;2.97;;;2.87;;
3299;SDS011;1662;49.310;8.134;2023-07-28T10:02:50;2.80;;;2.70;;
3299;SDS011;1662;49.310;8.134;2023-07-28T10:05:18;3.60;;;3.40;;
3299;SDS011;1662;49.310;8.134;2023-07-28T10:07:44;3.27;;;3.17;;
3299;SDS011;1662;49.310;8.134;2023-07-28T10:10:12;3.47;;;3.17;;
3299;SDS011;1662;49.310;8.134;2023-07-28T10:12:39;3.27;;;3.07;;
3299;SDS011;1662;49.310;8.134;2023-07-28T10:15:14;2.40;;;2.30;;
3299;SDS011;1662;49.310;8.134;2023-07-28T10:17:51;3.20;;;3.10;;
3299;SDS011;1662;49.310;8.134;2023-07-28T10:23:07;2.80;;;2.70;;
3299;SDS011;1662;49.310;8.134;2023-07-28T10:25:37;2.90;;;2.80;;
3299;SDS011;1662;49.310;8.134;2023-07-28T10:28:04;2.60;;;2.50;;
3299;SDS011;1662;49.310;8.134;2023-07-28T10:30:34;2.40;;;2.30;;
3299;SDS011;1662;49.310;8.134;2023-07-28T10:33:02;2.37;;;2.27;;
3299;SDS011;1662;49.310;8.134;2023-07-28T10:35:28;2.10;;;2.00;;
3299;SDS011;1662;49.310;8.134;2023-07-28T10:37:56;2.30;;;2.20;;
3299;SDS011;1662;49.310;8.134;2023-07-28T10:42:59;2.30;;;2.20;;
3299;SDS011;1662;49.310;8.134;2023-07-28T10:45:27;2.23;;;2.13;;
3299;SDS011;1662;49.310;8.134;2023-07-28T10:47:54;2.63;;;2.43;;
3299;SDS011;1662;49.310;8.134;2023-07-28T10:50:26;2.57;;;2.47;;
3299;SDS011;1662;49.310;8.134;2023-07-28T10:52:54;1.90;;;1.90;;
3299;SDS011;1662;49.310;8.134;2023-07-28T10:55:20;2.03;;;1.93;;
3299;SDS011;1662;49.310;8.134;2023-07-28T10:57:47;2.20;;;2.10;;
3299;SDS011;1662;49.310;8.134;2023-07-28T11:00:17;2.27;;;2.20;;
3299;SDS011;1662;49.310;8.134;2023-07-28T11:02:47;2.43;;;2.33;;
3299;SDS011;1662;49.310;8.134;2023-07-28T11:05:28;2.30;;;2.20;;
3299;SDS011;1662;49.310;8.134;2023-07-28T11:07:59;2.20;;;2.10;;
3299;SDS011;1662;49.310;8.134;2023-07-28T11:10:30;2.13;;;2.07;;
3299;SDS011;1662;49.310;8.134;2023-07-28T11:12:57;2.60;;;2.50;;
3299;SDS011;1662;49.310;8.134;2023-07-28T11:15:25;1.93;;;1.83;;
3299;SDS011;1662;49.310;8.134;2023-07-28T11:17:51;2.00;;;2.00;;
3299;SDS011;1662;49.310;8.134;2023-07-28T11:20:21;2.53;;;2.43;;
3299;SDS011;1662;49.310;8.134;2023-07-28T11:22:52;2.60;;;2.50;;
3299;SDS011;1662;49.310;8.134;2023-07-28T11:25:23;2.20;;;2.10;;
3299;SDS011;1662;49.310;8.134;2023-07-28T11:27:50;2.50;;;2.40;;
3299;SDS011;1662;49.310;8.134;2023-07-28T11:30:17;2.50;;;2.40;;
3299;SDS011;1662;49.310;8.134;2023-07-28T11:32:44;2.40;;;2.30;;
3299;SDS011;1662;49.310;8.134;2023-07-28T11:35:12;1.93;;;1.93;;
3299;SDS011;1662;49.310;8.134;2023-07-28T11:37:39;5.00;;;2.07;;
3299;SDS011;1662;49.310;8.134;2023-07-28T11:40:07;2.30;;;2.20;;
3299;SDS011;1662;49.310;8.134;2023-07-28T11:42:37;1.77;;;1.77;;
3299;SDS011;1662;49.310;8.134;2023-07-28T11:45:04;1.73;;;1.63;;
3299;SDS011;1662;49.310;8.134;2023-07-28T11:47:30;1.57;;;1.57;;
3299;SDS011;1662;49.310;8.134;2023-07-28T11:49:57;1.87;;;1.77;;
3299;SDS011;1662;49.310;8.134;2023-07-28T11:52:36;1.60;;;1.60;;
3299;SDS011;1662;49.310;8.134;2023-07-28T11:55:05;2.50;;;2.07;;
3299;SDS011;1662;49.310;8.134;2023-07-28T11:57:31;1.60;;;1.50;;
3299;SDS011;1662;49.310;8.134;2023-07-28T11:59:58;1.43;;;1.43;;
3299;SDS011;1662;49.310;8.134;2023-07-28T12:02:25;1.63;;;1.53;;
3299;SDS011;1662;49.310;8.134;2023-07-28T12:04:51;1.73;;;1.53;;
3299;SDS011;1662;49.310;8.134;2023-07-28T12:07:19;1.40;;;1.37;;
3299;SDS011;1662;49.310;8.134;2023-07-28T12:09:55;1.57;;;1.47;;
3299;SDS011;1662;49.310;8.134;2023-07-28T12:12:26;1.50;;;1.50;;
3299;SDS011;1662;49.310;8.134;2023-07-28T12:14:54;1.50;;;1.50;;
3299;SDS011;1662;49.310;8.134;2023-07-28T12:17:21;1.53;;;1.43;;
3299;SDS011;1662;49.310;8.134;2023-07-28T12:22:35;3.23;;;1.90;;
3299;SDS011;1662;49.310;8.134;2023-07-28T12:25:04;1.87;;;1.77;;
3299;SDS011;1662;49.310;8.134;2023-07-28T12:27:30;1.77;;;1.77;;
3299;SDS011;1662;49.310;8.134;2023-07-28T12:29:56;1.57;;;1.50;;
3299;SDS011;1662;49.310;8.134;2023-07-28T12:32:25;1.93;;;1.93;;
3299;SDS011;1662;49.310;8.134;2023-07-28T12:34:51;1.60;;;1.60;;
3299;SDS011;1662;49.310;8.134;2023-07-28T12:37:19;1.43;;;1.43;;
3299;SDS011;1662;49.310;8.134;2023-07-28T12:39:45;1.80;;;1.70;;
3299;SDS011;1662;49.310;8.134;2023-07-28T12:42:11;1.70;;;1.70;;
3299;SDS011;1662;49.310;8.134;2023-07-28T12:44:37;1.93;;;1.83;;
3299;SDS011;1662;49.310;8.134;2023-07-28T12:47:03;1.67;;;1.60;;
3299;SDS011;1662;49.310;8.134;2023-07-28T12:49:30;2.10;;;2.00;;
3299;SDS011;1662;49.310;8.134;2023-07-28T12:51:56;1.90;;;1.80;;
3299;SDS011;1662;49.310;8.134;2023-07-28T12:54:23;2.10;;;2.00;;
3299;SDS011;1662;49.310;8.134;2023-07-28T12:56:49;2.00;;;1.90;;
3299;SDS011;1662;49.310;8.134;2023-07-28T12:59:16;1.80;;;1.80;;
3299;SDS011;1662;49.310;8.134;2023-07-28T13:01:41;1.77;;;1.70;;
3299;SDS011;1662;49.310;8.134;2023-07-28T13:04:07;2.10;;;1.57;;
3299;SDS011;1662;49.310;8.134;2023-07-28T13:06:32;1.80;;;1.70;;
3299;SDS011;1662;49.310;8.134;2023-07-28T13:08:58;1.50;;;1.50;;
3299;SDS011;1662;49.310;8.134;2023-07-28T13:11:24;1.60;;;1.50;;
3299;SDS011;1662;49.310;8.134;2023-07-28T13:13:50;1.20;;;1.20;;
3299;SDS011;1662;49.310;8.134;2023-07-28T13:16:16;1.43;;;1.40;;
3299;SDS011;1662;49.310;8.134;2023-07-28T13:18:42;1.67;;;1.57;;
3299;SDS011;1662;49.310;8.134;2023-07-28T13:21:08;1.67;;;1.57;;
3299;SDS011;1662;49.310;8.134;2023-07-28T13:23:35;1.50;;;1.40;;
3299;SDS011;1662;49.310;8.134;2023-07-28T13:26:01;1.50;;;1.40;;
3299;SDS011;1662;49.310;8.134;2023-07-28T13:28:29;1.80;;;1.70;;
3299;SDS011;1662;49.310;8.134;2023-07-28T13:30:55;1.70;;;1.67;;
3299;SDS011;1662;49.310;8.134;2023-07-28T13:33:21;2.53;;;2.27;;
3299;SDS011;1662;49.310;8.134;2023-07-28T13:35:48;1.83;;;1.70;;
3299;SDS011;1662;49.310;8.134;2023-07-28T13:38:14;2.07;;;1.97;;
3299;SDS011;1662;49.310;8.134;2023-07-28T13:40:40;2.00;;;1.90;;
3299;SDS011;1662;49.310;8.134;2023-07-28T13:43:05;1.83;;;1.50;;
3299;SDS011;1662;49.310;8.134;2023-07-28T13:45:31;1.93;;;1.83;;
3299;SDS011;1662;49.310;8.134;2023-07-28T13:47:56;2.17;;;1.40;;
3299;SDS011;1662;49.310;8.134;2023-07-28T13:50:22;1.40;;;1.40;;
3299;SDS011;1662;49.310;8.134;2023-07-28T13:52:48;1.60;;;1.60;;
3299;SDS011;1662;49.310;8.134;2023-07-28T13:55:14;1.47;;;1.47;;
3299;SDS011;1662;49.310;8.134;2023-07-28T13:57:39;1.60;;;1.50;;
3299;SDS011;1662;49.310;8.134;2023-07-28T14:00:06;1.63;;;1.53;;
3299;SDS011;1662;49.310;8.134;2023-07-28T14:02:36;1.43;;;1.43;;
3299;SDS011;1662;49.310;8.134;2023-07-28T14:05:02;1.77;;;1.33;;
3299;SDS011;1662;49.310;8.134;2023-07-28T14:07:29;1.53;;;1.43;;
3299;SDS011;1662;49.310;8.134;2023-07-28T14:09:55;1.90;;;1.60;;
3299;SDS011;1662;49.310;8.134;2023-07-28T14:12:20;1.33;;;1.33;;
3299;SDS011;1662;49.310;8.134;2023-07-28T14:14:46;1.40;;;1.40;;
3299;SDS011;1662;49.310;8.134;2023-07-28T14:17:11;1.60;;;1.57;;
3299;SDS011;1662;49.310;8.134;2023-07-28T14:19:40;1.67;;;1.60;;
3299;SDS011;1662;49.310;8.134;2023-07-28T14:22:06;1.50;;;1.50;;
3299;SDS011;1662;49.310;8.134;2023-07-28T14:24:33;1.70;;;1.70;;
3299;SDS011;1662;49.310;8.134;2023-07-28T14:26:59;3.20;;;1.60;;
3299;SDS011;1662;49.310;8.134;2023-07-28T14:29:25;1.97;;;1.87;;
3299;SDS011;1662;49.310;8.134;2023-07-28T14:31:51;2.00;;;1.60;;
3299;SDS011;1662;49.310;8.134;2023-07-28T14:34:17;2.73;;;1.57;;
3299;SDS011;1662;49.310;8.134;2023-07-28T14:36:42;2.40;;;2.30;;
3299;SDS011;1662;49.310;8.134;2023-07-28T14:39:10;2.10;;;2.00;;
3299;SDS011;1662;49.310;8.134;2023-07-28T14:41:36;2.20;;;2.10;;
3299;SDS011;1662;49.310;8.134;2023-07-28T14:44:02;1.87;;;1.77;;
3299;SDS011;1662;49.310;8.134;2023-07-28T14:46:28;2.10;;;2.00;;
3299;SDS011;1662;49.310;8.134;2023-07-28T14:48:54;1.47;;;1.47;;
3299;SDS011;1662;49.310;8.134;2023-07-28T14:51:20;1.43;;;1.43;;
3299;SDS011;1662;49.310;8.134;2023-07-28T14:53:46;1.67;;;1.50;;
3299;SDS011;1662;49.310;8.134;2023-07-28T14:56:12;1.83;;;1.20;;
3299;SDS011;1662;49.310;8.134;2023-07-28T14:58:39;1.20;;;1.20;;
3299;SDS011;1662;49.310;8.134;2023-07-28T15:01:09;1.30;;;1.30;;
3299;SDS011;1662;49.310;8.134;2023-07-28T15:03:35;2.00;;;1.20;;
3299;SDS011;1662;49.310;8.134;2023-07-28T15:06:02;1.20;;;1.10;;
3299;SDS011;1662;49.310;8.134;2023-07-28T15:08:28;1.83;;;1.20;;
3299;SDS011;1662;49.310;8.134;2023-07-28T15:10:55;1.07;;;1.07;;
3299;SDS011;1662;49.310;8.134;2023-07-28T15:13:21;1.60;;;1.50;;
3299;SDS011;1662;49.310;8.134;2023-07-28T15:15:47;1.80;;;1.70;;
3299;SDS011;1662;49.310;8.134;2023-07-28T15:18:15;1.60;;;1.50;;
3299;SDS011;1662;49.310;8.134;2023-07-28T15:20:41;2.00;;;1.90;;
3299;SDS011;1662;49.310;8.134;2023-07-28T15:23:08;1.50;;;1.40;;
3299;SDS011;1662;49.310;8.134;2023-07-28T15:25:34;1.30;;;1.30;;
3299;SDS011;1662;49.310;8.134;2023-07-28T15:27:59;1.70;;;1.70;;